createdAt,value
2018-02-14T10:51:56.859Z,4.00
2018-02-14T10:54:24.410Z,3.77
2018-02-14T10:56:51.964Z,4.37
2018-02-14T10:59:19.475Z,4.43
2018-02-14T11:01:52.620Z,4.20
2018-02-14T11:04:22.971Z,4.33
2018-02-14T11:06:51.195Z,4.00
2018-02-14T11:09:18.748Z,3.73
2018-02-14T11:11:46.271Z,3.90
2018-02-14T11:14:13.799Z,4.43
2018-02-14T11:16:42.321Z,3.80
2018-02-14T11:19:09.878Z,4.40
2018-02-14T11:21:40.515Z,4.03
2018-02-14T11:24:08.057Z,3.77
2018-02-14T11:26:35.609Z,3.67
2018-02-14T11:29:03.134Z,3.80
2018-02-14T11:31:30.697Z,4.13
2018-02-14T11:33:58.252Z,2.40
2018-02-14T11:36:25.815Z,3.90
2018-02-14T11:38:53.325Z,3.10
2018-02-14T11:41:20.910Z,3.53
2018-02-14T11:43:49.236Z,4.40
2018-02-14T11:46:16.763Z,3.80
2018-02-14T11:48:44.266Z,3.97
2018-02-14T11:51:11.812Z,3.27
2018-02-14T11:53:39.367Z,4.20
2018-02-14T11:56:06.927Z,3.60
2018-02-14T11:58:34.450Z,4.00
2018-02-14T12:01:02.004Z,3.53
2018-02-14T12:03:29.554Z,3.70
2018-02-14T12:05:57.332Z,3.97
2018-02-14T12:08:24.846Z,3.30
2018-02-14T12:10:52.384Z,4.20
2018-02-14T12:13:19.933Z,4.27
2018-02-14T12:15:47.459Z,4.10
2018-02-14T12:18:15.767Z,3.80
2018-02-14T12:20:43.287Z,5.00
2018-02-14T12:23:12.052Z,4.23
2018-02-14T12:25:39.584Z,3.97
2018-02-14T12:28:07.084Z,4.03
2018-02-14T12:30:35.410Z,4.20
2018-02-14T12:33:02.964Z,3.83
2018-02-14T12:35:30.521Z,4.00
2018-02-14T12:37:58.064Z,4.20
2018-02-14T12:40:26.341Z,4.10
2018-02-14T12:42:53.871Z,4.93
2018-02-14T12:45:21.685Z,4.63
2018-02-14T12:47:49.197Z,4.47
2018-02-14T12:50:16.746Z,3.37
2018-02-14T12:52:44.260Z,3.70
2018-02-14T12:55:11.831Z,3.67
2018-02-14T12:57:39.373Z,5.30
2018-02-14T13:00:06.939Z,4.23
2018-02-14T13:02:34.460Z,3.73
2018-02-14T13:05:02.734Z,4.17
2018-02-14T13:07:31.042Z,3.87
2018-02-14T13:09:58.605Z,3.93
2018-02-14T13:12:26.120Z,3.50
2018-02-14T13:14:54.442Z,4.30
2018-02-14T13:17:21.941Z,4.17
2018-02-14T13:19:50.243Z,3.20
2018-02-14T13:22:17.775Z,3.93
2018-02-14T13:24:46.080Z,4.37
2018-02-14T13:27:13.629Z,4.60
2018-02-14T13:29:41.169Z,3.80
2018-02-14T13:32:10.053Z,4.40
2018-02-14T13:34:37.584Z,4.20
2018-02-14T13:37:05.101Z,3.37
2018-02-14T13:39:32.659Z,5.03
2018-02-14T13:42:00.174Z,4.10
2018-02-14T13:44:27.722Z,4.20
2018-02-14T13:46:56.857Z,3.90
2018-02-14T13:49:25.157Z,4.27
2018-02-14T13:51:52.715Z,4.23
2018-02-14T13:54:20.247Z,4.40
2018-02-14T13:56:48.537Z,4.27
2018-02-14T13:59:16.073Z,4.27
2018-02-14T14:01:44.380Z,4.40
2018-02-14T14:04:11.933Z,4.63
2018-02-14T14:06:39.449Z,4.70
2018-02-14T14:09:07.022Z,5.70
2018-02-14T14:11:35.260Z,5.57
2018-02-14T14:14:03.551Z,5.07
2018-02-14T14:16:31.060Z,5.93
2018-02-14T14:18:58.608Z,4.30
2018-02-14T14:21:26.124Z,6.10
2018-02-14T14:23:53.687Z,5.57
2018-02-14T14:26:21.211Z,6.10
2018-02-14T14:28:48.728Z,5.30
2018-02-14T14:31:16.262Z,5.60
2018-02-14T14:33:44.553Z,5.33
2018-02-14T14:36:12.852Z,5.17
2018-02-14T14:38:40.374Z,6.27
2018-02-14T14:41:08.687Z,6.40
2018-02-14T14:43:36.215Z,5.50
2018-02-14T14:46:04.548Z,6.27
2018-02-14T14:48:32.056Z,6.40
2018-02-14T14:51:00.359Z,6.50
2018-02-14T14:53:27.889Z,6.67
2018-02-14T14:55:56.203Z,6.40
2018-02-14T14:58:23.727Z,7.40
2018-02-14T15:00:51.777Z,8.80
2018-02-14T15:03:20.065Z,6.80
2018-02-14T15:05:48.314Z,6.90
2018-02-14T15:08:16.642Z,6.33
2018-02-14T15:10:44.153Z,6.37
2018-02-14T15:13:11.716Z,7.13
2018-02-14T15:15:39.991Z,6.63
2018-02-14T15:18:08.303Z,7.10
2018-02-14T15:20:35.827Z,7.50
2018-02-14T15:23:03.386Z,6.60
2018-02-14T15:25:31.672Z,7.37
2018-02-14T15:27:59.230Z,6.47
2018-02-14T15:30:27.501Z,6.97
2018-02-14T15:32:55.795Z,7.10
2018-02-14T15:35:23.309Z,8.77
2018-02-14T15:37:51.639Z,7.50
2018-02-14T15:40:19.719Z,20.43
2018-02-14T15:42:47.300Z,7.20
2018-02-14T15:45:14.850Z,7.30
2018-02-14T15:47:42.322Z,7.87
2018-02-14T15:50:10.656Z,8.57
2018-02-14T15:52:38.164Z,8.30
2018-02-14T15:55:06.033Z,8.90
2018-02-14T15:57:33.583Z,8.13
2018-02-14T16:00:01.111Z,8.40
2018-02-14T16:02:28.668Z,9.27
2018-02-14T16:04:56.179Z,7.87
2018-02-14T16:07:24.501Z,7.30
2018-02-14T16:09:52.012Z,7.40
2018-02-14T16:12:20.316Z,8.57
2018-02-14T16:14:47.834Z,8.70
2018-02-14T16:17:16.154Z,8.13
2018-02-14T16:19:43.671Z,8.97
2018-02-14T16:22:11.969Z,9.40
2018-02-14T16:24:39.554Z,8.73
2018-02-14T16:27:07.816Z,8.27
2018-02-14T16:29:35.403Z,8.33
2018-02-14T16:32:02.936Z,8.70
2018-02-14T16:34:30.460Z,9.13
2018-02-14T16:36:58.764Z,8.50
2018-02-14T16:39:26.290Z,10.47
2018-02-14T16:41:54.599Z,9.60
2018-02-14T16:44:22.993Z,9.90
2018-02-14T16:46:50.584Z,8.93
2018-02-14T16:49:19.629Z,10.00
2018-02-14T16:51:47.138Z,9.17
2018-02-14T16:54:15.668Z,9.53
2018-02-14T16:56:43.203Z,11.53
2018-02-14T16:59:10.732Z,10.20
2018-02-14T17:01:38.276Z,16.20
2018-02-14T17:04:05.783Z,9.50
2018-02-14T17:06:33.288Z,10.17
2018-02-14T17:09:01.606Z,10.20
2018-02-14T17:11:29.148Z,10.50
2018-02-14T17:13:57.464Z,10.80
2018-02-14T17:16:25.009Z,10.90
2018-02-14T17:18:52.560Z,10.60
2018-02-14T17:21:20.073Z,11.70
2018-02-14T17:23:47.616Z,11.30
2018-02-14T17:26:15.154Z,9.83
2018-02-14T17:28:42.713Z,10.90
2018-02-14T17:31:10.235Z,12.40
2018-02-14T17:33:38.863Z,11.87
2018-02-14T17:36:06.461Z,11.60
2018-02-14T17:38:34.947Z,11.33
2018-02-14T17:41:21.868Z,10.97
2018-02-14T17:43:50.835Z,10.70
2018-02-14T17:46:21.494Z,9.77
2018-02-14T17:48:49.283Z,10.60
2018-02-14T17:51:16.823Z,10.67
2018-02-14T17:53:44.376Z,10.27
2018-02-14T17:56:12.658Z,9.67
2018-02-14T17:58:40.192Z,9.07
2018-02-14T18:01:08.545Z,10.20
2018-02-14T18:03:36.108Z,10.73
2018-02-14T18:06:03.950Z,9.03
2018-02-14T18:08:31.504Z,9.20
2018-02-14T18:10:59.195Z,9.80
2018-02-14T18:13:26.728Z,9.57
2018-02-14T18:15:54.277Z,10.70
2018-02-14T18:18:21.791Z,9.57
2018-02-14T18:20:50.102Z,10.50
2018-02-14T18:23:17.633Z,11.10
2018-02-14T18:25:45.940Z,10.00
2018-02-14T18:28:13.450Z,11.27
2018-02-14T18:30:41.766Z,11.23
2018-02-14T18:33:13.366Z,9.80
2018-02-14T18:35:40.935Z,9.63
2018-02-14T18:38:09.206Z,9.27
2018-02-14T18:40:37.522Z,9.93
2018-02-14T18:43:05.069Z,8.97
2018-02-14T18:45:32.583Z,9.93
2018-02-14T18:48:00.121Z,11.10
2018-02-14T18:50:27.631Z,10.27
2018-02-14T18:52:55.240Z,10.30
2018-02-14T18:55:22.784Z,9.63
2018-02-14T18:57:50.347Z,10.47
2018-02-14T19:00:17.855Z,8.10
2018-02-14T19:02:46.149Z,9.33
2018-02-14T19:05:13.699Z,8.57
2018-02-14T19:07:41.235Z,11.00
2018-02-14T19:10:10.228Z,11.27
2018-02-14T19:12:38.570Z,8.97
2018-02-14T19:15:06.138Z,8.00
2018-02-14T19:17:33.694Z,9.00
2018-02-14T19:20:01.244Z,9.80
2018-02-14T19:22:28.762Z,9.47
2018-02-14T19:24:56.316Z,7.70
2018-02-14T19:27:23.843Z,8.00
2018-02-14T19:29:51.432Z,10.00
2018-02-14T19:32:18.973Z,8.23
2018-02-14T19:34:47.287Z,7.73
2018-02-14T19:37:14.808Z,9.13
2018-02-14T19:39:43.123Z,7.67
2018-02-14T19:42:10.679Z,7.27
2018-02-14T19:44:38.238Z,8.07
2018-02-14T19:47:05.767Z,8.20
2018-02-14T19:49:33.878Z,8.50
2018-02-14T19:52:01.412Z,7.90
2018-02-14T19:54:28.936Z,7.57
2018-02-14T19:56:57.247Z,7.70
2018-02-14T19:59:25.532Z,6.60
2018-02-14T20:01:53.074Z,7.00
2018-02-14T20:04:20.598Z,7.80
2018-02-14T20:06:48.903Z,7.13
2018-02-14T20:09:16.423Z,7.10
2018-02-14T20:11:44.758Z,7.33
2018-02-14T20:14:12.309Z,5.73
2018-02-14T20:16:39.875Z,5.50
2018-02-14T20:19:07.395Z,6.73
2018-02-14T20:21:34.972Z,6.60
2018-02-14T20:24:02.525Z,6.90
2018-02-14T20:26:30.065Z,7.10
2018-02-14T20:28:58.431Z,6.37
2018-02-14T20:31:26.764Z,6.27
2018-02-14T20:33:54.280Z,5.87
2018-02-14T20:36:21.828Z,6.97
2018-02-14T20:38:50.152Z,5.90
2018-02-14T20:41:17.697Z,5.60
2018-02-14T20:43:45.235Z,7.10
2018-02-14T20:46:12.785Z,5.93
2018-02-14T20:48:41.103Z,4.90
2018-02-14T20:51:08.625Z,6.27
2018-02-14T20:53:37.133Z,5.07
2018-02-14T20:56:04.638Z,6.33
2018-02-14T20:58:32.196Z,6.47
2018-02-14T21:00:59.732Z,6.17
2018-02-14T21:03:27.381Z,5.07
2018-02-14T21:05:54.899Z,6.37
2018-02-14T21:08:22.432Z,5.70
2018-02-14T21:10:50.762Z,5.00
2018-02-14T21:13:18.260Z,5.73
2018-02-14T21:15:46.598Z,5.90
2018-02-14T21:18:14.119Z,5.33
2018-02-14T21:20:41.663Z,5.30
2018-02-14T21:23:09.204Z,5.77
2018-02-14T21:25:36.776Z,4.40
2018-02-14T21:28:05.057Z,4.90
2018-02-14T21:30:33.368Z,7.07
2018-02-14T21:33:00.878Z,5.30
2018-02-14T21:35:28.410Z,5.50
2018-02-14T21:37:56.277Z,5.80
2018-02-14T21:40:23.824Z,5.20
2018-02-14T21:42:51.360Z,4.93
2018-02-14T21:45:19.113Z,5.03
2018-02-14T21:47:46.662Z,4.43
2018-02-14T21:50:14.201Z,5.27
2018-02-14T21:52:42.486Z,5.60
2018-02-14T21:55:10.789Z,6.17
2018-02-14T21:57:38.379Z,4.70
2018-02-14T22:00:05.916Z,4.67
2018-02-14T22:02:34.023Z,5.23
2018-02-14T22:05:01.528Z,5.53
2018-02-14T22:07:29.063Z,6.40
2018-02-14T22:09:57.412Z,7.40
2018-02-14T22:12:24.918Z,5.50
2018-02-14T22:14:52.459Z,5.20
2018-02-14T22:17:20.752Z,6.57
2018-02-14T22:19:48.292Z,6.03
2018-02-14T22:22:16.581Z,6.20
2018-02-14T22:24:44.127Z,6.87
2018-02-14T22:27:12.534Z,5.20
2018-02-14T22:29:40.089Z,6.90
2018-02-14T22:32:07.607Z,5.73
2018-02-14T22:34:35.883Z,7.13
2018-02-14T22:37:04.196Z,6.63
2018-02-14T22:39:31.711Z,6.10
2018-02-14T22:41:59.247Z,7.40
2018-02-14T22:44:26.781Z,6.80
2018-02-14T22:46:54.311Z,6.47
2018-02-14T22:49:22.390Z,6.77
2018-02-14T22:51:49.927Z,7.97
2018-02-14T22:54:17.469Z,8.13
2018-02-14T22:56:45.010Z,7.37
2018-02-14T22:59:14.089Z,7.57
2018-02-14T23:01:41.637Z,6.33
2018-02-14T23:04:09.170Z,7.33
2018-02-14T23:06:36.690Z,7.47
2018-02-14T23:09:05.029Z,6.30
2018-02-14T23:11:32.536Z,7.90
2018-02-14T23:14:00.082Z,6.30
2018-02-14T23:16:28.396Z,6.87
2018-02-14T23:18:55.950Z,6.00
2018-02-14T23:21:23.459Z,6.40
2018-02-14T23:23:50.990Z,6.00
2018-02-14T23:26:18.535Z,7.73
2018-02-14T23:28:46.037Z,7.00
2018-02-14T23:31:13.583Z,7.30
2018-02-14T23:33:41.111Z,6.63
2018-02-14T23:36:08.705Z,6.47
2018-02-14T23:38:36.213Z,6.80
2018-02-14T23:41:03.760Z,5.83
2018-02-14T23:43:31.284Z,6.70
2018-02-14T23:45:58.832Z,6.27
2018-02-14T23:48:26.357Z,6.83
2018-02-14T23:50:53.887Z,6.70
2018-02-14T23:53:21.399Z,5.90
2018-02-14T23:55:48.959Z,6.30
2018-02-14T23:58:16.472Z,5.70
